sensor_id;sensor_type;location;lat;lon;timestamp;P1;durP1;ratioP1;P2;durP2;ratioP2
20456;SDS011;10387;51.102;6.848;2023-07-24T00:02:15;2.77;;;2.13;;
20456;SDS011;10387;51.102;6.848;2023-07-24T00:04:41;2.83;;;2.17;;
20456;SDS011;10387;51.102;6.848;2023-07-24T00:07:10;2.97;;;2.47;;
20456;SDS011;10387;51.102;6.848;2023-07-24T00:09:38;2.97;;;2.53;;
20456;SDS011;10387;51.102;6.848;2023-07-24T00:12:07;3.93;;;2.53;;
20456;SDS011;10387;51.102;6.848;2023-07-24T00:14:33;3.00;;;2.60;;
20456;SDS011;10387;51.102;6.848;2023-07-24T00:16:59;4.33;;;2.90;;
20456;SDS011;10387;51.102;6.848;2023-07-24T00:19:27;4.57;;;2.83;;
20456;SDS011;10387;51.102;6.848;2023-07-24T00:21:54;3.10;;;2.73;;
20456;SDS011;10387;51.102;6.848;2023-07-24T00:24:20;3.20;;;2.90;;
20456;SDS011;10387;51.102;6.848;2023-07-24T00:26:48;3.50;;;2.67;;
20456;SDS011;10387;51.102;6.848;2023-07-24T00:29:24;3.50;;;3.00;;
20456;SDS011;10387;51.102;6.848;2023-07-24T00:31:53;5.10;;;2.87;;
20456;SDS011;10387;51.102;6.848;2023-07-24T00:34:21;3.37;;;2.80;;
20456;SDS011;10387;51.102;6.848;2023-07-24T00:36:47;3.93;;;3.10;;
20456;SDS011;10387;51.102;6.848;2023-07-24T00:39:13;4.07;;;3.17;;
20456;SDS011;10387;51.102;6.848;2023-07-24T00:41:40;4.37;;;3.43;;
20456;SDS011;10387;51.102;6.848;2023-07-24T00:44:14;5.33;;;3.47;;
20456;SDS011;10387;51.102;6.848;2023-07-24T00:46:40;4.67;;;3.80;;
20456;SDS011;10387;51.102;6.848;2023-07-24T00:49:07;5.97;;;3.60;;
20456;SDS011;10387;51.102;6.848;2023-07-24T00:51:34;5.83;;;3.77;;
20456;SDS011;10387;51.102;6.848;2023-07-24T00:54:01;4.67;;;3.47;;
20456;SDS011;10387;51.102;6.848;2023-07-24T00:56:29;4.57;;;3.50;;
20456;SDS011;10387;51.102;6.848;2023-07-24T00:59:00;5.83;;;3.87;;
20456;SDS011;10387;51.102;6.848;2023-07-24T01:01:30;4.37;;;3.97;;
20456;SDS011;10387;51.102;6.848;2023-07-24T01:03:56;4.40;;;4.00;;
20456;SDS011;10387;51.102;6.848;2023-07-24T01:06:39;5.17;;;3.87;;
20456;SDS011;10387;51.102;6.848;2023-07-24T01:09:26;4.50;;;3.90;;
20456;SDS011;10387;51.102;6.848;2023-07-24T01:11:55;5.40;;;4.50;;
20456;SDS011;10387;51.102;6.848;2023-07-24T01:14:52;6.80;;;4.23;;
20456;SDS011;10387;51.102;6.848;2023-07-24T01:17:22;6.80;;;4.17;;
20456;SDS011;10387;51.102;6.848;2023-07-24T01:19:52;7.63;;;5.20;;
20456;SDS011;10387;51.102;6.848;2023-07-24T01:27:31;7.03;;;5.27;;
20456;SDS011;10387;51.102;6.848;2023-07-24T01:29:58;7.43;;;5.50;;
20456;SDS011;10387;51.102;6.848;2023-07-24T01:32:24;9.30;;;6.00;;
20456;SDS011;10387;51.102;6.848;2023-07-24T01:34:51;8.57;;;5.50;;
20456;SDS011;10387;51.102;6.848;2023-07-24T01:37:18;7.90;;;5.20;;
20456;SDS011;10387;51.102;6.848;2023-07-24T01:39:46;5.97;;;4.97;;
20456;SDS011;10387;51.102;6.848;2023-07-24T01:42:13;7.30;;;4.87;;
20456;SDS011;10387;51.102;6.848;2023-07-24T01:44:39;6.83;;;5.17;;
20456;SDS011;10387;51.102;6.848;2023-07-24T01:47:06;6.00;;;4.90;;
20456;SDS011;10387;51.102;6.848;2023-07-24T01:49:32;7.63;;;5.20;;
20456;SDS011;10387;51.102;6.848;2023-07-24T01:51:58;6.27;;;4.80;;
20456;SDS011;10387;51.102;6.848;2023-07-24T01:54:24;5.13;;;4.63;;
20456;SDS011;10387;51.102;6.848;2023-07-24T01:56:51;5.33;;;4.40;;
20456;SDS011;10387;51.102;6.848;2023-07-24T01:59:17;7.13;;;4.63;;
20456;SDS011;10387;51.102;6.848;2023-07-24T02:01:43;6.13;;;4.77;;
20456;SDS011;10387;51.102;6.848;2023-07-24T02:04:10;5.93;;;4.90;;
20456;SDS011;10387;51.102;6.848;2023-07-24T02:06:36;5.33;;;4.83;;
20456;SDS011;10387;51.102;6.848;2023-07-24T02:09:02;6.37;;;5.23;;
20456;SDS011;10387;51.102;6.848;2023-07-24T02:11:28;5.87;;;5.10;;
20456;SDS011;10387;51.102;6.848;2023-07-24T02:13:54;7.63;;;5.53;;
20456;SDS011;10387;51.102;6.848;2023-07-24T02:16:20;6.37;;;5.27;;
20456;SDS011;10387;51.102;6.848;2023-07-24T02:18:46;7.67;;;5.10;;
20456;SDS011;10387;51.102;6.848;2023-07-24T02:21:13;6.80;;;5.30;;
20456;SDS011;10387;51.102;6.848;2023-07-24T02:23:39;5.47;;;4.97;;
20456;SDS011;10387;51.102;6.848;2023-07-24T02:26:05;6.27;;;4.80;;
20456;SDS011;10387;51.102;6.848;2023-07-24T02:28:33;6.53;;;4.83;;
20456;SDS011;10387;51.102;6.848;2023-07-24T02:30:59;5.43;;;4.73;;
20456;SDS011;10387;51.102;6.848;2023-07-24T02:33:25;6.10;;;4.50;;
20456;SDS011;10387;51.102;6.848;2023-07-24T02:35:52;5.17;;;4.47;;
20456;SDS011;10387;51.102;6.848;2023-07-24T02:38:18;6.83;;;4.57;;
20456;SDS011;10387;51.102;6.848;2023-07-24T02:40:44;6.67;;;5.53;;
20456;SDS011;10387;51.102;6.848;2023-07-24T02:43:10;5.93;;;4.90;;
20456;SDS011;10387;51.102;6.848;2023-07-24T02:45:37;6.07;;;5.13;;
20456;SDS011;10387;51.102;6.848;2023-07-24T02:48:04;6.27;;;4.67;;
20456;SDS011;10387;51.102;6.848;2023-07-24T02:50:30;5.93;;;4.97;;
20456;SDS011;10387;51.102;6.848;2023-07-24T02:52:56;7.40;;;5.00;;
20456;SDS011;10387;51.102;6.848;2023-07-24T02:55:22;7.93;;;5.90;;
20456;SDS011;10387;51.102;6.848;2023-07-24T02:57:48;8.73;;;5.27;;
20456;SDS011;10387;51.102;6.848;2023-07-24T03:00:14;6.57;;;5.00;;
20456;SDS011;10387;51.102;6.848;2023-07-24T03:02:41;7.03;;;5.00;;
20456;SDS011;10387;51.102;6.848;2023-07-24T03:05:07;7.10;;;4.97;;
20456;SDS011;10387;51.102;6.848;2023-07-24T03:07:33;6.83;;;4.50;;
20456;SDS011;10387;51.102;6.848;2023-07-24T03:09:59;7.23;;;5.20;;
20456;SDS011;10387;51.102;6.848;2023-07-24T03:12:25;5.60;;;4.63;;
20456;SDS011;10387;51.102;6.848;2023-07-24T03:14:51;6.53;;;5.10;;
20456;SDS011;10387;51.102;6.848;2023-07-24T03:17:18;7.17;;;4.73;;
20456;SDS011;10387;51.102;6.848;2023-07-24T03:19:44;5.87;;;4.50;;
20456;SDS011;10387;51.102;6.848;2023-07-24T03:22:10;7.37;;;4.80;;
20456;SDS011;10387;51.102;6.848;2023-07-24T03:24:36;6.40;;;4.90;;
20456;SDS011;10387;51.102;6.848;2023-07-24T03:27:02;5.60;;;4.20;;
20456;SDS011;10387;51.102;6.848;2023-07-24T03:29:28;5.77;;;4.57;;
20456;SDS011;10387;51.102;6.848;2023-07-24T03:31:54;6.13;;;5.00;;
20456;SDS011;10387;51.102;6.848;2023-07-24T03:34:20;5.83;;;4.80;;
20456;SDS011;10387;51.102;6.848;2023-07-24T03:36:46;5.40;;;4.80;;
20456;SDS011;10387;51.102;6.848;2023-07-24T03:39:12;7.83;;;5.37;;
20456;SDS011;10387;51.102;6.848;2023-07-24T03:41:39;6.90;;;5.37;;
20456;SDS011;10387;51.102;6.848;2023-07-24T03:44:05;6.07;;;4.67;;
20456;SDS011;10387;51.102;6.848;2023-07-24T03:46:31;5.87;;;5.20;;
20456;SDS011;10387;51.102;6.848;2023-07-24T03:48:57;6.37;;;5.03;;
20456;SDS011;10387;51.102;6.848;2023-07-24T03:51:24;5.67;;;4.83;;
20456;SDS011;10387;51.102;6.848;2023-07-24T03:53:50;7.43;;;5.07;;
20456;SDS011;10387;51.102;6.848;2023-07-24T03:56:16;9.07;;;6.00;;
20456;SDS011;10387;51.102;6.848;2023-07-24T03:58:42;5.73;;;5.00;;
20456;SDS011;10387;51.102;6.848;2023-07-24T04:01:08;8.57;;;5.53;;
20456;SDS011;10387;51.102;6.848;2023-07-24T04:03:34;7.27;;;5.10;;
20456;SDS011;10387;51.102;6.848;2023-07-24T04:06:01;7.90;;;5.30;;
20456;SDS011;10387;51.102;6.848;2023-07-24T04:08:27;5.87;;;4.87;;
20456;SDS011;10387;51.102;6.848;2023-07-24T04:10:53;6.57;;;5.07;;
20456;SDS011;10387;51.102;6.848;2023-07-24T04:13:21;6.40;;;5.00;;
20456;SDS011;10387;51.102;6.848;2023-07-24T04:15:47;6.73;;;5.03;;
20456;SDS011;10387;51.102;6.848;2023-07-24T04:18:13;6.10;;;5.00;;
20456;SDS011;10387;51.102;6.848;2023-07-24T04:20:39;7.43;;;5.27;;
20456;SDS011;10387;51.102;6.848;2023-07-24T04:23:05;7.77;;;5.17;;
20456;SDS011;10387;51.102;6.848;2023-07-24T04:25:31;7.83;;;5.50;;
20456;SDS011;10387;51.102;6.848;2023-07-24T04:27:58;6.90;;;5.23;;
20456;SDS011;10387;51.102;6.848;2023-07-24T04:30:24;6.63;;;5.40;;
20456;SDS011;10387;51.102;6.848;2023-07-24T04:32:50;8.20;;;5.20;;
20456;SDS011;10387;51.102;6.848;2023-07-24T04:35:16;7.67;;;5.53;;
20456;SDS011;10387;51.102;6.848;2023-07-24T04:37:43;6.70;;;5.33;;
20456;SDS011;10387;51.102;6.848;2023-07-24T04:40:09;5.47;;;4.60;;
20456;SDS011;10387;51.102;6.848;2023-07-24T04:42:35;4.60;;;3.73;;
20456;SDS011;10387;51.102;6.848;2023-07-24T04:45:01;5.77;;;4.63;;
20456;SDS011;10387;51.102;6.848;2023-07-24T04:47:27;7.47;;;5.20;;
20456;SDS011;10387;51.102;6.848;2023-07-24T04:49:53;7.77;;;4.90;;
20456;SDS011;10387;51.102;6.848;2023-07-24T04:52:20;7.20;;;5.30;;
20456;SDS011;10387;51.102;6.848;2023-07-24T04:54:46;6.80;;;5.30;;
20456;SDS011;10387;51.102;6.848;2023-07-24T04:57:12;6.23;;;5.17;;
20456;SDS011;10387;51.102;6.848;2023-07-24T04:59:39;7.53;;;4.97;;
20456;SDS011;10387;51.102;6.848;2023-07-24T05:02:05;6.90;;;5.40;;
20456;SDS011;10387;51.102;6.848;2023-07-24T05:04:31;6.67;;;4.97;;
20456;SDS011;10387;51.102;6.848;2023-07-24T05:06:57;5.13;;;4.60;;
20456;SDS011;10387;51.102;6.848;2023-07-24T05:09:23;8.37;;;5.37;;
20456;SDS011;10387;51.102;6.848;2023-07-24T05:11:49;9.57;;;5.37;;
20456;SDS011;10387;51.102;6.848;2023-07-24T05:14:15;7.93;;;5.40;;
20456;SDS011;10387;51.102;6.848;2023-07-24T05:16:41;6.30;;;5.03;;
20456;SDS011;10387;51.102;6.848;2023-07-24T05:19:07;7.63;;;5.13;;
20456;SDS011;10387;51.102;6.848;2023-07-24T05:21:33;7.40;;;5.23;;
20456;SDS011;10387;51.102;6.848;2023-07-24T05:24:00;6.60;;;4.93;;
20456;SDS011;10387;51.102;6.848;2023-07-24T05:26:26;7.43;;;4.90;;
20456;SDS011;10387;51.102;6.848;2023-07-24T05:28:52;5.60;;;4.73;;
20456;SDS011;10387;51.102;6.848;2023-07-24T05:31:18;6.40;;;4.77;;
20456;SDS011;10387;51.102;6.848;2023-07-24T05:33:44;6.37;;;4.50;;
20456;SDS011;10387;51.102;6.848;2023-07-24T05:36:10;7.00;;;5.10;;
20456;SDS011;10387;51.102;6.848;2023-07-24T05:38:36;8.47;;;5.03;;
20456;SDS011;10387;51.102;6.848;2023-07-24T05:41:03;6.30;;;5.07;;
20456;SDS011;10387;51.102;6.848;2023-07-24T05:43:29;5.87;;;4.50;;
20456;SDS011;10387;51.102;6.848;2023-07-24T05:45:56;7.20;;;5.03;;
20456;SDS011;10387;51.102;6.848;2023-07-24T05:48:23;5.80;;;4.87;;
20456;SDS011;10387;51.102;6.848;2023-07-24T05:50:51;6.23;;;4.47;;
20456;SDS011;10387;51.102;6.848;2023-07-24T05:53:17;7.03;;;4.70;;
20456;SDS011;10387;51.102;6.848;2023-07-24T05:55:43;5.43;;;4.37;;
20456;SDS011;10387;51.102;6.848;2023-07-24T05:58:10;5.97;;;4.77;;
20456;SDS011;10387;51.102;6.848;2023-07-24T06:00:36;6.53;;;4.70;;
20456;SDS011;10387;51.102;6.848;2023-07-24T06:03:03;6.73;;;4.70;;
20456;SDS011;10387;51.102;6.848;2023-07-24T06:05:29;6.43;;;4.57;;
20456;SDS011;10387;51.102;6.848;2023-07-24T06:07:55;6.70;;;4.50;;
20456;SDS011;10387;51.102;6.848;2023-07-24T06:10:21;5.47;;;4.33;;
20456;SDS011;10387;51.102;6.848;2023-07-24T06:12:47;6.47;;;4.67;;
20456;SDS011;10387;51.102;6.848;2023-07-24T06:15:13;6.00;;;4.80;;
20456;SDS011;10387;51.102;6.848;2023-07-24T06:17:39;6.67;;;4.47;;
20456;SDS011;10387;51.102;6.848;2023-07-24T06:20:06;4.60;;;4.07;;
20456;SDS011;10387;51.102;6.848;2023-07-24T06:22:33;5.90;;;4.50;;
20456;SDS011;10387;51.102;6.848;2023-07-24T06:24:59;6.30;;;4.20;;
20456;SDS011;10387;51.102;6.848;2023-07-24T06:27:25;4.63;;;3.93;;
20456;SDS011;10387;51.102;6.848;2023-07-24T06:29:51;4.03;;;3.50;;
20456;SDS011;10387;51.102;6.848;2023-07-24T06:32:17;5.83;;;4.13;;
20456;SDS011;10387;51.102;6.848;2023-07-24T06:34:43;5.67;;;3.93;;
20456;SDS011;10387;51.102;6.848;2023-07-24T06:37:09;5.57;;;3.97;;
20456;SDS011;10387;51.102;6.848;2023-07-24T06:39:36;5.70;;;3.93;;
20456;SDS011;10387;51.102;6.848;2023-07-24T06:42:02;5.77;;;4.27;;
20456;SDS011;10387;51.102;6.848;2023-07-24T06:44:28;4.53;;;3.73;;
20456;SDS011;10387;51.102;6.848;2023-07-24T06:46:54;4.47;;;3.73;;
20456;SDS011;10387;51.102;6.848;2023-07-24T06:49:20;4.37;;;3.57;;
20456;SDS011;10387;51.102;6.848;2023-07-24T06:51:46;6.57;;;3.90;;
20456;SDS011;10387;51.102;6.848;2023-07-24T06:54:13;4.23;;;3.43;;
20456;SDS011;10387;51.102;6.848;2023-07-24T06:56:39;7.10;;;3.73;;
20456;SDS011;10387;51.102;6.848;2023-07-24T06:59:05;4.87;;;3.50;;
20456;SDS011;10387;51.102;6.848;2023-07-24T07:01:31;4.03;;;3.17;;
20456;SDS011;10387;51.102;6.848;2023-07-24T07:03:57;6.67;;;3.33;;
20456;SDS011;10387;51.102;6.848;2023-07-24T07:06:23;4.33;;;3.40;;
20456;SDS011;10387;51.102;6.848;2023-07-24T07:08:49;7.43;;;3.87;;
20456;SDS011;10387;51.102;6.848;2023-07-24T07:11:15;5.40;;;3.30;;
20456;SDS011;10387;51.102;6.848;2023-07-24T07:13:41;3.83;;;3.33;;
20456;SDS011;10387;51.102;6.848;2023-07-24T07:16:07;4.13;;;3.63;;
20456;SDS011;10387;51.102;6.848;2023-07-24T07:18:33;3.80;;;3.23;;
20456;SDS011;10387;51.102;6.848;2023-07-24T07:20:59;3.57;;;3.20;;
20456;SDS011;10387;51.102;6.848;2023-07-24T07:23:25;4.67;;;3.40;;
20456;SDS011;10387;51.102;6.848;2023-07-24T07:25:54;3.60;;;3.20;;
20456;SDS011;10387;51.102;6.848;2023-07-24T07:28:22;5.37;;;3.50;;
20456;SDS011;10387;51.102;6.848;2023-07-24T07:30:58;4.03;;;3.17;;
20456;SDS011;10387;51.102;6.848;2023-07-24T07:33:25;4.07;;;2.97;;
20456;SDS011;10387;51.102;6.848;2023-07-24T07:35:51;4.50;;;3.00;;
20456;SDS011;10387;51.102;6.848;2023-07-24T07:38:17;5.43;;;3.43;;
20456;SDS011;10387;51.102;6.848;2023-07-24T07:40:43;3.67;;;2.90;;
20456;SDS011;10387;51.102;6.848;2023-07-24T07:43:09;4.53;;;3.23;;
20456;SDS011;10387;51.102;6.848;2023-07-24T07:45:35;4.70;;;3.07;;
20456;SDS011;10387;51.102;6.848;2023-07-24T07:48:02;4.03;;;3.00;;
20456;SDS011;10387;51.102;6.848;2023-07-24T07:50:29;3.20;;;2.70;;
20456;SDS011;10387;51.102;6.848;2023-07-24T07:52:55;3.33;;;2.97;;
20456;SDS011;10387;51.102;6.848;2023-07-24T07:55:21;4.80;;;3.33;;
20456;SDS011;10387;51.102;6.848;2023-07-24T07:57:47;3.60;;;3.23;;
20456;SDS011;10387;51.102;6.848;2023-07-24T08:00:13;3.50;;;2.83;;
20456;SDS011;10387;51.102;6.848;2023-07-24T08:02:53;4.67;;;3.10;;
20456;SDS011;10387;51.102;6.848;2023-07-24T08:05:21;4.93;;;3.40;;
20456;SDS011;10387;51.102;6.848;2023-07-24T08:07:47;3.97;;;3.20;;
20456;SDS011;10387;51.102;6.848;2023-07-24T08:10:13;6.83;;;3.70;;
20456;SDS011;10387;51.102;6.848;2023-07-24T08:12:45;4.10;;;3.10;;
20456;SDS011;10387;51.102;6.848;2023-07-24T08:15:21;4.50;;;3.63;;
20456;SDS011;10387;51.102;6.848;2023-07-24T08:18:00;3.63;;;3.13;;
20456;SDS011;10387;51.102;6.848;2023-07-24T08:20:26;4.10;;;3.10;;
20456;SDS011;10387;51.102;6.848;2023-07-24T08:22:52;4.73;;;3.60;;
20456;SDS011;10387;51.102;6.848;2023-07-24T08:25:19;4.40;;;3.50;;
20456;SDS011;10387;51.102;6.848;2023-07-24T08:27:45;4.33;;;3.93;;
20456;SDS011;10387;51.102;6.848;2023-07-24T08:30:11;4.63;;;3.47;;
20456;SDS011;10387;51.102;6.848;2023-07-24T08:32:39;4.97;;;3.27;;
20456;SDS011;10387;51.102;6.848;2023-07-24T08:35:05;5.40;;;3.40;;
20456;SDS011;10387;51.102;6.848;2023-07-24T08:37:31;4.63;;;3.80;;
20456;SDS011;10387;51.102;6.848;2023-07-24T08:39:58;4.00;;;3.50;;
20456;SDS011;10387;51.102;6.848;2023-07-24T08:42:24;4.90;;;3.70;;
20456;SDS011;10387;51.102;6.848;2023-07-24T08:44:50;3.77;;;3.00;;
20456;SDS011;10387;51.102;6.848;2023-07-24T08:47:17;4.57;;;3.50;;
20456;SDS011;10387;51.102;6.848;2023-07-24T08:49:44;4.37;;;3.43;;
20456;SDS011;10387;51.102;6.848;2023-07-24T08:52:11;4.40;;;3.03;;
20456;SDS011;10387;51.102;6.848;2023-07-24T08:54:38;4.23;;;3.43;;
20456;SDS011;10387;51.102;6.848;2023-07-24T08:57:06;5.00;;;3.23;;
20456;SDS011;10387;51.102;6.848;2023-07-24T08:59:32;5.60;;;3.10;;
20456;SDS011;10387;51.102;6.848;2023-07-24T09:01:59;4.07;;;3.03;;
20456;SDS011;10387;51.102;6.848;2023-07-24T09:04:25;3.80;;;3.40;;
20456;SDS011;10387;51.102;6.848;2023-07-24T09:06:51;2.90;;;2.63;;
20456;SDS011;10387;51.102;6.848;2023-07-24T09:09:17;3.73;;;3.00;;
20456;SDS011;10387;51.102;6.848;2023-07-24T09:11:50;3.43;;;3.10;;
20456;SDS011;10387;51.102;6.848;2023-07-24T09:14:20;4.57;;;3.60;;
20456;SDS011;10387;51.102;6.848;2023-07-24T09:16:46;6.53;;;3.80;;
20456;SDS011;10387;51.102;6.848;2023-07-24T09:19:18;6.00;;;3.60;;
20456;SDS011;10387;51.102;6.848;2023-07-24T09:21:45;4.90;;;3.80;;
20456;SDS011;10387;51.102;6.848;2023-07-24T09:24:14;5.53;;;3.63;;
20456;SDS011;10387;51.102;6.848;2023-07-24T09:26:50;4.23;;;3.50;;
20456;SDS011;10387;51.102;6.848;2023-07-24T09:29:17;4.50;;;3.53;;
20456;SDS011;10387;51.102;6.848;2023-07-24T09:31:43;4.37;;;3.20;;
20456;SDS011;10387;51.102;6.848;2023-07-24T09:34:14;4.50;;;3.27;;
20456;SDS011;10387;51.102;6.848;2023-07-24T09:36:40;4.13;;;3.17;;
20456;SDS011;10387;51.102;6.848;2023-07-24T09:39:06;4.60;;;3.57;;
20456;SDS011;10387;51.102;6.848;2023-07-24T09:41:35;3.20;;;2.90;;
20456;SDS011;10387;51.102;6.848;2023-07-24T09:44:01;3.80;;;2.97;;
20456;SDS011;10387;51.102;6.848;2023-07-24T09:46:27;4.40;;;2.90;;
20456;SDS011;10387;51.102;6.848;2023-07-24T09:48:55;3.37;;;3.07;;
20456;SDS011;10387;51.102;6.848;2023-07-24T09:51:22;4.40;;;3.27;;
20456;SDS011;10387;51.102;6.848;2023-07-24T09:53:54;3.47;;;3.03;;
20456;SDS011;10387;51.102;6.848;2023-07-24T09:56:21;4.73;;;3.33;;
20456;SDS011;10387;51.102;6.848;2023-07-24T09:58:48;4.33;;;3.30;;
20456;SDS011;10387;51.102;6.848;2023-07-24T10:01:21;4.20;;;2.97;;
20456;SDS011;10387;51.102;6.848;2023-07-24T10:03:50;3.77;;;2.90;;
20456;SDS011;10387;51.102;6.848;2023-07-24T10:06:17;2.97;;;2.43;;
20456;SDS011;10387;51.102;6.848;2023-07-24T10:09:01;2.60;;;2.40;;
20456;SDS011;10387;51.102;6.848;2023-07-24T10:11:29;4.77;;;2.90;;
20456;SDS011;10387;51.102;6.848;2023-07-24T10:13:56;3.50;;;2.97;;
20456;SDS011;10387;51.102;6.848;2023-07-24T10:16:22;4.50;;;2.77;;
20456;SDS011;10387;51.102;6.848;2023-07-24T10:18:52;3.20;;;2.90;;
20456;SDS011;10387;51.102;6.848;2023-07-24T10:21:25;4.53;;;2.87;;
20456;SDS011;10387;51.102;6.848;2023-07-24T10:23:59;3.63;;;2.50;;
20456;SDS011;10387;51.102;6.848;2023-07-24T10:26:33;3.63;;;3.00;;
20456;SDS011;10387;51.102;6.848;2023-07-24T10:29:00;2.67;;;2.47;;
20456;SDS011;10387;51.102;6.848;2023-07-24T10:31:26;2.47;;;2.20;;
20456;SDS011;10387;51.102;6.848;2023-07-24T10:33:53;2.97;;;2.63;;
20456;SDS011;10387;51.102;6.848;2023-07-24T10:36:22;2.97;;;2.63;;
20456;SDS011;10387;51.102;6.848;2023-07-24T10:38:52;3.30;;;2.63;;
20456;SDS011;10387;51.102;6.848;2023-07-24T10:41:19;5.83;;;3.07;;
20456;SDS011;10387;51.102;6.848;2023-07-24T10:43:45;3.23;;;2.60;;
20456;SDS011;10387;51.102;6.848;2023-07-24T10:46:12;3.30;;;2.80;;
20456;SDS011;10387;51.102;6.848;2023-07-24T10:48:41;3.50;;;3.00;;
20456;SDS011;10387;51.102;6.848;2023-07-24T10:51:09;3.27;;;2.40;;
20456;SDS011;10387;51.102;6.848;2023-07-24T10:53:36;2.80;;;2.50;;
20456;SDS011;10387;51.102;6.848;2023-07-24T10:56:03;3.03;;;2.57;;
20456;SDS011;10387;51.102;6.848;2023-07-24T10:58:29;3.00;;;2.70;;
20456;SDS011;10387;51.102;6.848;2023-07-24T11:00:56;2.70;;;2.50;;
20456;SDS011;10387;51.102;6.848;2023-07-24T11:03:25;3.97;;;2.67;;
20456;SDS011;10387;51.102;6.848;2023-07-24T11:05:51;3.43;;;2.50;;
20456;SDS011;10387;51.102;6.848;2023-07-24T11:08:20;3.50;;;2.43;;
20456;SDS011;10387;51.102;6.848;2023-07-24T11:11:03;3.00;;;2.47;;
20456;SDS011;10387;51.102;6.848;2023-07-24T11:13:30;3.47;;;2.80;;
20456;SDS011;10387;51.102;6.848;2023-07-24T11:15:56;8.60;;;3.93;;
20456;SDS011;10387;51.102;6.848;2023-07-24T11:18:23;4.43;;;3.17;;
20456;SDS011;10387;51.102;6.848;2023-07-24T11:20:54;5.13;;;3.07;;
20456;SDS011;10387;51.102;6.848;2023-07-24T11:23:23;6.20;;;3.57;;
20456;SDS011;10387;51.102;6.848;2023-07-24T11:25:53;4.37;;;3.40;;
20456;SDS011;10387;51.102;6.848;2023-07-24T11:28:22;5.57;;;3.17;;
20456;SDS011;10387;51.102;6.848;2023-07-24T11:33:34;5.63;;;2.97;;
20456;SDS011;10387;51.102;6.848;2023-07-24T11:36:11;4.83;;;3.33;;
20456;SDS011;10387;51.102;6.848;2023-07-24T11:38:56;3.97;;;3.53;;
20456;SDS011;10387;51.102;6.848;2023-07-24T11:41:27;5.60;;;3.90;;
20456;SDS011;10387;51.102;6.848;2023-07-24T11:44:27;6.17;;;3.80;;
20456;SDS011;10387;51.102;6.848;2023-07-24T11:47:08;6.23;;;3.87;;
20456;SDS011;10387;51.102;6.848;2023-07-24T11:49:43;6.27;;;3.90;;
20456;SDS011;10387;51.102;6.848;2023-07-24T11:52:14;3.83;;;2.40;;
20456;SDS011;10387;51.102;6.848;2023-07-24T11:54:56;2.70;;;1.63;;
20456;SDS011;10387;51.102;6.848;2023-07-24T12:00:38;4.20;;;2.13;;
20456;SDS011;10387;51.102;6.848;2023-07-24T12:06:13;2.30;;;1.47;;
20456;SDS011;10387;51.102;6.848;2023-07-24T12:08:42;2.73;;;1.73;;
20456;SDS011;10387;51.102;6.848;2023-07-24T12:11:17;1.70;;;1.60;;
20456;SDS011;10387;51.102;6.848;2023-07-24T12:16:30;2.10;;;1.80;;
20456;SDS011;10387;51.102;6.848;2023-07-24T12:19:09;1.73;;;1.60;;
20456;SDS011;10387;51.102;6.848;2023-07-24T12:21:45;2.70;;;1.73;;
20456;SDS011;10387;51.102;6.848;2023-07-24T12:24:47;1.67;;;1.57;;
20456;SDS011;10387;51.102;6.848;2023-07-24T12:27:17;2.10;;;1.73;;
20456;SDS011;10387;51.102;6.848;2023-07-24T12:30:06;1.90;;;1.67;;
20456;SDS011;10387;51.102;6.848;2023-07-24T12:32:54;2.60;;;1.50;;
20456;SDS011;10387;51.102;6.848;2023-07-24T12:35:25;2.07;;;1.40;;
20456;SDS011;10387;51.102;6.848;2023-07-24T12:38:15;2.27;;;1.83;;
20456;SDS011;10387;51.102;6.848;2023-07-24T12:43:21;2.40;;;1.20;;
20456;SDS011;10387;51.102;6.848;2023-07-24T12:46:00;1.37;;;1.27;;
20456;SDS011;10387;51.102;6.848;2023-07-24T12:48:39;1.40;;;1.10;;
20456;SDS011;10387;51.102;6.848;2023-07-24T12:51:07;1.43;;;1.27;;
20456;SDS011;10387;51.102;6.848;2023-07-24T12:53:35;1.77;;;1.37;;
20456;SDS011;10387;51.102;6.848;2023-07-24T12:56:06;1.63;;;1.00;;
20456;SDS011;10387;51.102;6.848;2023-07-24T12:58:35;1.67;;;1.27;;
20456;SDS011;10387;51.102;6.848;2023-07-24T13:01:04;1.97;;;1.20;;
20456;SDS011;10387;51.102;6.848;2023-07-24T13:03:40;1.57;;;1.10;;
20456;SDS011;10387;51.102;6.848;2023-07-24T13:06:08;1.23;;;1.10;;
20456;SDS011;10387;51.102;6.848;2023-07-24T13:08:36;3.80;;;1.30;;
20456;SDS011;10387;51.102;6.848;2023-07-24T13:12:00;1.50;;;1.33;;
20456;SDS011;10387;51.102;6.848;2023-07-24T13:14:49;1.60;;;1.37;;
20456;SDS011;10387;51.102;6.848;2023-07-24T13:17:17;2.70;;;1.40;;
20456;SDS011;10387;51.102;6.848;2023-07-24T13:19:47;2.60;;;0.97;;
20456;SDS011;10387;51.102;6.848;2023-07-24T13:22:16;1.23;;;1.13;;
20456;SDS011;10387;51.102;6.848;2023-07-24T13:24:46;1.73;;;1.23;;
20456;SDS011;10387;51.102;6.848;2023-07-24T13:27:22;2.60;;;1.33;;
20456;SDS011;10387;51.102;6.848;2023-07-24T13:30:00;1.73;;;1.20;;
20456;SDS011;10387;51.102;6.848;2023-07-24T13:32:45;3.00;;;1.40;;
20456;SDS011;10387;51.102;6.848;2023-07-24T13:37:53;2.60;;;1.60;;
20456;SDS011;10387;51.102;6.848;2023-07-24T13:40:42;2.30;;;1.53;;
20456;SDS011;10387;51.102;6.848;2023-07-24T13:43:20;1.87;;;1.50;;
20456;SDS011;10387;51.102;6.848;2023-07-24T13:46:03;1.70;;;1.50;;
20456;SDS011;10387;51.102;6.848;2023-07-24T13:48:30;1.60;;;1.40;;
20456;SDS011;10387;51.102;6.848;2023-07-24T13:50:56;1.70;;;1.50;;
20456;SDS011;10387;51.102;6.848;2023-07-24T13:53:22;2.23;;;1.47;;
20456;SDS011;10387;51.102;6.848;2023-07-24T13:55:50;1.73;;;1.57;;
20456;SDS011;10387;51.102;6.848;2023-07-24T13:58:16;1.57;;;1.33;;
20456;SDS011;10387;51.102;6.848;2023-07-24T14:00:42;2.23;;;1.20;;
20456;SDS011;10387;51.102;6.848;2023-07-24T14:03:10;1.57;;;1.20;;
20456;SDS011;10387;51.102;6.848;2023-07-24T14:05:37;1.53;;;1.40;;
20456;SDS011;10387;51.102;6.848;2023-07-24T14:08:04;1.50;;;1.37;;
20456;SDS011;10387;51.102;6.848;2023-07-24T14:10:30;1.00;;;1.00;;
20456;SDS011;10387;51.102;6.848;2023-07-24T14:12:56;1.30;;;1.20;;
20456;SDS011;10387;51.102;6.848;2023-07-24T14:15:23;1.87;;;1.10;;
20456;SDS011;10387;51.102;6.848;2023-07-24T14:17:49;1.27;;;1.17;;
20456;SDS011;10387;51.102;6.848;2023-07-24T14:20:15;1.40;;;1.30;;
20456;SDS011;10387;51.102;6.848;2023-07-24T14:22:41;1.43;;;1.30;;
20456;SDS011;10387;51.102;6.848;2023-07-24T14:25:07;1.77;;;1.37;;
20456;SDS011;10387;51.102;6.848;2023-07-24T14:27:33;1.43;;;1.33;;
20456;SDS011;10387;51.102;6.848;2023-07-24T14:30:01;1.33;;;1.20;;
20456;SDS011;10387;51.102;6.848;2023-07-24T14:32:28;1.83;;;1.27;;
20456;SDS011;10387;51.102;6.848;2023-07-24T14:34:54;2.40;;;1.60;;
20456;SDS011;10387;51.102;6.848;2023-07-24T14:37:20;1.50;;;1.40;;
20456;SDS011;10387;51.102;6.848;2023-07-24T14:39:46;1.63;;;1.50;;
20456;SDS011;10387;51.102;6.848;2023-07-24T14:42:12;2.23;;;1.40;;
20456;SDS011;10387;51.102;6.848;2023-07-24T14:44:38;1.73;;;1.23;;
20456;SDS011;10387;51.102;6.848;2023-07-24T14:47:04;1.93;;;1.30;;
20456;SDS011;10387;51.102;6.848;2023-07-24T14:49:32;1.40;;;1.30;;
20456;SDS011;10387;51.102;6.848;2023-07-24T14:51:58;1.90;;;1.80;;
20456;SDS011;10387;51.102;6.848;2023-07-24T14:54:26;1.40;;;1.30;;
20456;SDS011;10387;51.102;6.848;2023-07-24T14:56:52;2.20;;;1.60;;
20456;SDS011;10387;51.102;6.848;2023-07-24T14:59:18;1.60;;;1.33;;
20456;SDS011;10387;51.102;6.848;2023-07-24T15:01:45;3.50;;;1.93;;
20456;SDS011;10387;51.102;6.848;2023-07-24T15:04:11;3.37;;;1.73;;
20456;SDS011;10387;51.102;6.848;2023-07-24T15:06:37;5.27;;;2.40;;
20456;SDS011;10387;51.102;6.848;2023-07-24T15:09:03;3.10;;;2.00;;
20456;SDS011;10387;51.102;6.848;2023-07-24T15:11:29;3.70;;;2.40;;
20456;SDS011;10387;51.102;6.848;2023-07-24T15:13:55;4.37;;;2.30;;
20456;SDS011;10387;51.102;6.848;2023-07-24T15:16:21;2.93;;;2.50;;
20456;SDS011;10387;51.102;6.848;2023-07-24T15:18:48;2.67;;;2.00;;